Thunder radar more information blitzortung!


Radar de pluja more information rain snow radar


Visita la nostra xarxa de llocs de meteo:

Template documentation
and downloads

And another site



No particular awareness of the weather is required.    There are no Weather-warnings

Pagina Historial Weather Underground text

Diari Resum Setembre 21, 2017 Unitats:  Tant    Imperial   Mètric
« Previous Dia
SegĂźent Dia »
Diari Setmana Mensual Anual Personalitzada
  Maxima: Minima: Media:
Temperatura: 81.5 °F /  27.5 °C 55.4 °F /  13.0 °C 70.3 °F /  21.3 °C
Punt de rosada: 60.6 °F /  15.9 °C 47.5 °F /  8.6 °C 57.2 °F /  14 °C
Humitat: 81 % 47 % 64 %
Wind Speed: 12.7 mph /  20.4 km/h - 3.9 mph /  6.2 km/h
RĂ fegues de vent: 12.7 mph /  20.4 km/h - -
Vent:- - SSW
Pression baro: 30.1 in /  1018.8 hPa 30 in /  1014.8 hPa -
Precipitacions: 0 in /  0.0 mm    
Historical Graphs
 
 
Dades de taula per Setembre 21, 2017
Temps Temperatura Punt de rosada Pression baro Vent Wind Speed RĂ fegues de vent Humitat Rainfall Rate (Hourly)
00:00 56.1 °F /  13.4 °C 47.7 °F /  8.7 °C 30.1 in /  1017.8 hPa West 1 mph /  1.6 km/h 2 mph /  3.2 km/h 73 % 0 in /  0.0 mm
00:03 60.4 °F /  15.8 °C 47.5 °F /  8.6 °C 30.1 in /  1017.8 hPa Calm     62 % 0 in /  0.0 mm
00:10 56.1 °F /  13.4 °C 47.8 °F /  8.8 °C 30.1 in /  1017.8 hPa Calm     74 % 0 in /  0.0 mm
00:20 56.1 °F /  13.4 °C 47.8 °F /  8.8 °C 30.1 in /  1017.8 hPa Calm     74 % 0 in /  0.0 mm
00:30 56.1 °F /  13.4 °C 47.8 °F /  8.8 °C 30.1 in /  1017.8 hPa Calm     74 % 0 in /  0.0 mm
00:40 55.9 °F /  13.3 °C 47.8 °F /  8.8 °C 30.1 in /  1017.8 hPa Calm   1 mph /  1.6 km/h 74 % 0 in /  0.0 mm
00:50 55.9 °F /  13.3 °C 47.8 °F /  8.8 °C 30.1 in /  1017.8 hPa WSW 1 mph /  1.6 km/h 2 mph /  3.2 km/h 74 % 0 in /  0.0 mm
01:00 56.1 °F /  13.4 °C 48.4 °F /  9.1 °C 30 in /  1016.8 hPa WSW 1 mph /  1.6 km/h 1 mph /  1.6 km/h 75 % 0 in /  0.0 mm
01:10 56.3 °F /  13.5 °C 48.6 °F /  9.2 °C 30.1 in /  1017.8 hPa Calm     75 % 0 in /  0.0 mm
01:20 56.1 °F /  13.4 °C 48.4 °F /  9.1 °C 30.1 in /  1017.8 hPa Calm   2 mph /  3.2 km/h 75 % 0 in /  0.0 mm
01:30 55.9 °F /  13.3 °C 48 °F /  8.9 °C 30.1 in /  1017.8 hPa Calm     75 % 0 in /  0.0 mm
01:40 55.8 °F /  13.2 °C 48 °F /  8.9 °C 30.1 in /  1017.8 hPa Calm   2 mph /  3.2 km/h 75 % 0 in /  0.0 mm
01:50 55.8 °F /  13.2 °C 48 °F /  8.9 °C 30.1 in /  1017.8 hPa Calm     75 % 0 in /  0.0 mm
02:00 55.4 °F /  13.0 °C 47.7 °F /  8.7 °C 30.1 in /  1017.8 hPa WSW 1 mph /  1.6 km/h 2 mph /  3.2 km/h 75 % 0 in /  0.0 mm
02:10 55.4 °F /  13.0 °C 48 °F /  8.9 °C 30.1 in /  1017.8 hPa Calm     76 % 0 in /  0.0 mm
02:20 55.4 °F /  13.0 °C 48.4 °F /  9.1 °C 30.1 in /  1017.8 hPa Calm   1 mph /  1.6 km/h 77 % 0 in /  0.0 mm
02:30 55.4 °F /  13.0 °C 48 °F /  8.9 °C 30.1 in /  1017.8 hPa Calm   2 mph /  3.2 km/h 76 % 0 in /  0.0 mm
02:40 55.6 °F /  13.1 °C 48 °F /  8.9 °C 30 in /  1016.8 hPa Calm   1 mph /  1.6 km/h 76 % 0 in /  0.0 mm
02:50 55.6 °F /  13.1 °C 48.6 °F /  9.2 °C 30 in /  1016.8 hPa Calm   1 mph /  1.6 km/h 77 % 0 in /  0.0 mm
03:00 55.4 °F /  13.0 °C 48 °F /  8.9 °C 30.1 in /  1017.8 hPa NNE 1 mph /  1.6 km/h 1 mph /  1.6 km/h 76 % 0 in /  0.0 mm
03:10 55.8 °F /  13.2 °C 48.4 °F /  9.1 °C 30.1 in /  1017.8 hPa Calm   2 mph /  3.2 km/h 76 % 0 in /  0.0 mm
03:20 55.9 °F /  13.3 °C 48.6 °F /  9.2 °C 30.1 in /  1017.8 hPa Calm     76 % 0 in /  0.0 mm
03:30 55.8 °F /  13.2 °C 48.4 °F /  9.1 °C 30.1 in /  1017.8 hPa WNW 1 mph /  1.6 km/h 2 mph /  3.2 km/h 76 % 0 in /  0.0 mm
03:40 56.3 °F /  13.5 °C 49.3 °F /  9.6 °C 30.1 in /  1017.8 hPa WSW 1 mph /  1.6 km/h 1 mph /  1.6 km/h 77 % 0 in /  0.0 mm
03:50 56.7 °F /  13.7 °C 49.5 °F /  9.7 °C 30.1 in /  1017.8 hPa Calm   2 mph /  3.2 km/h 77 % 0 in /  0.0 mm
04:00 56.7 °F /  13.7 °C 49.3 °F /  9.6 °C 30.1 in /  1017.8 hPa SW 1 mph /  1.6 km/h 2 mph /  3.2 km/h 76 % 0 in /  0.0 mm
04:10 58.6 °F /  14.8 °C 51.4 °F /  10.8 °C 30.1 in /  1018.8 hPa SW 1 mph /  1.6 km/h 1 mph /  1.6 km/h 77 % 0 in /  0.0 mm
04:20 59.7 °F /  15.4 °C 51.4 °F /  10.8 °C 30.1 in /  1018.8 hPa Calm   3 mph /  4.8 km/h 74 % 0 in /  0.0 mm
04:30 60.6 °F /  15.9 °C 51.3 °F /  10.7 °C 30.1 in /  1018.8 hPa NNE 3 mph /  4.8 km/h 3 mph /  4.8 km/h 71 % 0 in /  0.0 mm
04:40 60.3 °F /  15.7 °C 50.4 °F /  10.2 °C 30.1 in /  1018.8 hPa NNE 1 mph /  1.6 km/h 1 mph /  1.6 km/h 70 % 0 in /  0.0 mm
04:50 61 °F /  16.1 °C 50.7 °F /  10.4 °C 30.1 in /  1018.8 hPa NW 1 mph /  1.6 km/h 2 mph /  3.2 km/h 69 % 0 in /  0.0 mm
05:00 62.4 °F /  16.9 °C 51.6 °F /  10.9 °C 30.1 in /  1018.8 hPa NW 1 mph /  1.6 km/h 2 mph /  3.2 km/h 68 % 0 in /  0.0 mm
05:10 62.2 °F /  16.8 °C 51.1 °F /  10.6 °C 30.1 in /  1018.8 hPa Calm   2 mph /  3.2 km/h 67 % 0 in /  0.0 mm
05:20 62.6 °F /  17.0 °C 51.1 °F /  10.6 °C 30.1 in /  1018.8 hPa South 1 mph /  1.6 km/h 2 mph /  3.2 km/h 66 % 0 in /  0.0 mm
05:30 64.9 °F /  18.3 °C 53.2 °F /  11.8 °C 30.1 in /  1018.8 hPa ESE 1 mph /  1.6 km/h 2 mph /  3.2 km/h 66 % 0 in /  0.0 mm
05:40 64.8 °F /  18.2 °C 52.7 °F /  11.5 °C 30.1 in /  1018.8 hPa Calm   3 mph /  4.8 km/h 65 % 0 in /  0.0 mm
05:50 65.3 °F /  18.5 °C 52.3 °F /  11.3 °C 30.1 in /  1018.8 hPa ENE 3 mph /  4.8 km/h 3 mph /  4.8 km/h 63 % 0 in /  0.0 mm
06:00 66.6 °F /  19.2 °C 53.1 °F /  11.7 °C 30.1 in /  1018.8 hPa NE 2 mph /  3.2 km/h 4 mph /  6.4 km/h 62 % 0 in /  0.0 mm
06:10 66.2 °F /  19.0 °C 52.9 °F /  11.6 °C 30.1 in /  1018.8 hPa ENE 1 mph /  1.6 km/h 3 mph /  4.8 km/h 62 % 0 in /  0.0 mm
11:18 67.6 °F /  19.8 °C 54.1 °F /  12.3 °C 30.1 in /  1018.8 hPa ENE 2.3 mph /  3.7 km/h 2.3 mph /  3.7 km/h 62 % 0 in /  0.0 mm
11:19 67.6 °F /  19.8 °C 54.1 °F /  12.3 °C 30.1 in /  1018.8 hPa ENE 2.3 mph /  3.7 km/h 2.3 mph /  3.7 km/h 62 % 0 in /  0.0 mm
11:24 67.8 °F /  19.9 °C 54 °F /  12.2 °C 30.1 in /  1018.8 hPa NE 2.3 mph /  3.7 km/h 2.6 mph /  4.2 km/h 61 % 0 in /  0.0 mm
11:29 68 °F /  20.0 °C 53.6 °F /  12.0 °C 30.1 in /  1018.8 hPa East 2.3 mph /  3.7 km/h 2.3 mph /  3.7 km/h 60 % 0 in /  0.0 mm
11:34 69.1 °F /  20.6 °C 54.7 °F /  12.6 °C 30.1 in /  1018.8 hPa ESE 1.2 mph /  1.9 km/h 1.2 mph /  1.9 km/h 60 % 0 in /  0.0 mm
11:39 69.6 °F /  20.9 °C 55 °F /  12.8 °C 30.1 in /  1018.8 hPa WSW 1.2 mph /  1.9 km/h   60 % 0 in /  0.0 mm
11:44 70.2 °F /  21.2 °C 55.2 °F /  12.9 °C 30.1 in /  1018.8 hPa SE 2.4 mph /  3.9 km/h 2.4 mph /  3.9 km/h 59 % 0 in /  0.0 mm
11:49 70 °F /  21.1 °C 55 °F /  12.8 °C 30.1 in /  1018.8 hPa East 3.5 mph /  5.6 km/h 3.5 mph /  5.6 km/h 59 % 0 in /  0.0 mm
11:54 70.2 °F /  21.2 °C 54.7 °F /  12.6 °C 30.1 in /  1018.8 hPa ESE 4.6 mph /  7.4 km/h 4.6 mph /  7.4 km/h 58 % 0 in /  0.0 mm
11:59 70.3 °F /  21.3 °C 55.8 °F /  13.2 °C 30.1 in /  1018.8 hPa NNE 2.3 mph /  3.7 km/h 2.3 mph /  3.7 km/h 60 % 0 in /  0.0 mm
12:04 70.9 °F /  21.6 °C 56.8 °F /  13.8 °C 30.1 in /  1018.8 hPa East 3.5 mph /  5.6 km/h 3.5 mph /  5.6 km/h 61 % 0 in /  0.0 mm
12:09 70.9 °F /  21.6 °C 56.8 °F /  13.8 °C 30.1 in /  1018.8 hPa WNW 3.5 mph /  5.6 km/h 3.5 mph /  5.6 km/h 61 % 0 in /  0.0 mm
12:14 72.1 °F /  22.3 °C 57.6 °F /  14.2 °C 30.1 in /  1018.8 hPa ESE 4 mph /  6.4 km/h 4 mph /  6.4 km/h 60 % 0 in /  0.0 mm
12:19 71.8 °F /  22.1 °C 57 °F /  13.9 °C 30.1 in /  1017.8 hPa NE 5.8 mph /  9.3 km/h 5.8 mph /  9.3 km/h 60 % 0 in /  0.0 mm
12:24 72.3 °F /  22.4 °C 57.7 °F /  14.3 °C 30.1 in /  1017.8 hPa ESE 5.8 mph /  9.3 km/h 5.8 mph /  9.3 km/h 60 % 0 in /  0.0 mm
12:29 72.3 °F /  22.4 °C 57.7 °F /  14.3 °C 30.1 in /  1017.8 hPa South 5.8 mph /  9.3 km/h 5.8 mph /  9.3 km/h 60 % 0 in /  0.0 mm
12:34 72.7 °F /  22.6 °C 57.6 °F /  14.2 °C 30.1 in /  1017.8 hPa SSE 3.5 mph /  5.6 km/h 3.5 mph /  5.6 km/h 59 % 0 in /  0.0 mm
12:39 72.9 °F /  22.7 °C 58.3 °F /  14.6 °C 30.1 in /  1017.8 hPa NNE 3.5 mph /  5.6 km/h 3.5 mph /  5.6 km/h 60 % 0 in /  0.0 mm
12:44 73.9 °F /  23.3 °C 59.2 °F /  15.1 °C 30.1 in /  1017.8 hPa ESE 3.8 mph /  6.1 km/h 3.8 mph /  6.1 km/h 60 % 0 in /  0.0 mm
12:49 73.2 °F /  22.9 °C 57.6 °F /  14.2 °C 30.1 in /  1017.8 hPa SE 6.9 mph /  11.1 km/h 6.9 mph /  11.1 km/h 58 % 0 in /  0.0 mm
12:54 73.2 °F /  22.9 °C 57.9 °F /  14.4 °C 30.1 in /  1017.8 hPa ENE 4.6 mph /  7.4 km/h 4.6 mph /  7.4 km/h 59 % 0 in /  0.0 mm
12:59 73.4 °F /  23.0 °C 58.3 °F /  14.6 °C 30.1 in /  1017.8 hPa East 5.8 mph /  9.3 km/h 5.8 mph /  9.3 km/h 59 % 0 in /  0.0 mm
13:04 73.8 °F /  23.2 °C 58.1 °F /  14.5 °C 30 in /  1016.8 hPa ESE 3.5 mph /  5.6 km/h 3.5 mph /  5.6 km/h 58 % 0 in /  0.0 mm
13:09 74.1 °F /  23.4 °C 58.8 °F /  14.9 °C 30 in /  1016.8 hPa East 5.8 mph /  9.3 km/h 5.8 mph /  9.3 km/h 59 % 0 in /  0.0 mm
13:14 74.5 °F /  23.6 °C 58.6 °F /  14.8 °C 30 in /  1016.8 hPa NNE 5.8 mph /  9.3 km/h 5.8 mph /  9.3 km/h 58 % 0 in /  0.0 mm
13:19 74.5 °F /  23.6 °C 58.6 °F /  14.8 °C 30.1 in /  1017.8 hPa ESE 2.3 mph /  3.7 km/h 2.3 mph /  3.7 km/h 58 % 0 in /  0.0 mm
13:24 75.7 °F /  24.3 °C 59.4 °F /  15.2 °C 30.1 in /  1017.8 hPa ESE 3.5 mph /  5.6 km/h 3.5 mph /  5.6 km/h 57 % 0 in /  0.0 mm
13:29 76.1 °F /  24.5 °C 59.4 °F /  15.2 °C 30.1 in /  1017.8 hPa NE 4.6 mph /  7.4 km/h 4.6 mph /  7.4 km/h 56 % 0 in /  0.0 mm
13:34 75.6 °F /  24.2 °C 58.3 °F /  14.6 °C 30.1 in /  1017.8 hPa SE 4.6 mph /  7.4 km/h 4.6 mph /  7.4 km/h 55 % 0 in /  0.0 mm
13:39 76.3 °F /  24.6 °C 58.8 °F /  14.9 °C 30.1 in /  1017.8 hPa SSE 5.8 mph /  9.3 km/h 5.8 mph /  9.3 km/h 55 % 0 in /  0.0 mm
13:44 75.9 °F /  24.4 °C 58.6 °F /  14.8 °C 30.1 in /  1017.8 hPa NW 5.8 mph /  9.3 km/h 5.8 mph /  9.3 km/h 55 % 0 in /  0.0 mm
13:49 76.3 °F /  24.6 °C 58.8 °F /  14.9 °C 30.1 in /  1017.8 hPa SSE 4.6 mph /  7.4 km/h 5.4 mph /  8.7 km/h 55 % 0 in /  0.0 mm
13:54 77.2 °F /  25.1 °C 59.2 °F /  15.1 °C 30.1 in /  1017.8 hPa SSW 4.6 mph /  7.4 km/h 4.6 mph /  7.4 km/h 54 % 0 in /  0.0 mm
13:59 78.1 °F /  25.6 °C 60.1 °F /  15.6 °C 30.1 in /  1017.8 hPa SW 3.5 mph /  5.6 km/h 3.5 mph /  5.6 km/h 54 % 0 in /  0.0 mm
14:04 77.4 °F /  25.2 °C 59.4 °F /  15.2 °C 30.1 in /  1017.8 hPa WSW 3.5 mph /  5.6 km/h 3.5 mph /  5.6 km/h 54 % 0 in /  0.0 mm
14:09 77.7 °F /  25.4 °C 59.7 °F /  15.4 °C 30.1 in /  1017.8 hPa SW 8.1 mph /  13.0 km/h 8.1 mph /  13.0 km/h 54 % 0 in /  0.0 mm
14:14 79 °F /  26.1 °C 60.4 °F /  15.8 °C 30.1 in /  1017.8 hPa SSE 2.6 mph /  4.2 km/h 2.6 mph /  4.2 km/h 53 % 0 in /  0.0 mm
14:19 79.2 °F /  26.2 °C 60.6 °F /  15.9 °C 30.1 in /  1017.8 hPa SSE 2.3 mph /  3.7 km/h   53 % 0 in /  0.0 mm
14:24 78.6 °F /  25.9 °C 60.1 °F /  15.6 °C 30.1 in /  1017.8 hPa East 5.8 mph /  9.3 km/h 5.8 mph /  9.3 km/h 53 % 0 in /  0.0 mm
14:29 79.3 °F /  26.3 °C 60.3 °F /  15.7 °C 30.1 in /  1017.8 hPa ESE 4.6 mph /  7.4 km/h 4.6 mph /  7.4 km/h 52 % 0 in /  0.0 mm
14:34 80.6 °F /  27.0 °C 60.3 °F /  15.7 °C 30 in /  1016.8 hPa South 2.3 mph /  3.7 km/h 2.3 mph /  3.7 km/h 50 % 0 in /  0.0 mm
14:39 81 °F /  27.2 °C 60.6 °F /  15.9 °C 30 in /  1016.8 hPa SW 5.8 mph /  9.3 km/h 5.8 mph /  9.3 km/h 50 % 0 in /  0.0 mm
14:44 80.1 °F /  26.7 °C 59.7 °F /  15.4 °C 30 in /  1016.8 hPa SSW 9.2 mph /  14.8 km/h 9.2 mph /  14.8 km/h 50 % 0 in /  0.0 mm
14:49 80.4 °F /  26.9 °C 60.1 °F /  15.6 °C 30 in /  1015.8 hPa SSW 5.8 mph /  9.3 km/h 5.8 mph /  9.3 km/h 50 % 0 in /  0.0 mm
14:54 80.6 °F /  27.0 °C 59.7 °F /  15.4 °C 30 in /  1015.8 hPa WSW 8.1 mph /  13.0 km/h 8.1 mph /  13.0 km/h 49 % 0 in /  0.0 mm
14:59 79.9 °F /  26.6 °C 59 °F /  15.0 °C 30 in /  1015.8 hPa SSW 5.8 mph /  9.3 km/h 5.8 mph /  9.3 km/h 49 % 0 in /  0.0 mm
15:04 80.4 °F /  26.9 °C 59.5 °F /  15.3 °C 30 in /  1015.8 hPa West 5.8 mph /  9.3 km/h 5.8 mph /  9.3 km/h 49 % 0 in /  0.0 mm
15:09 81.1 °F /  27.3 °C 59.5 °F /  15.3 °C 30 in /  1015.8 hPa SSW 5.8 mph /  9.3 km/h 5.8 mph /  9.3 km/h 48 % 0 in /  0.0 mm
15:14 81.5 °F /  27.5 °C 59.9 °F /  15.5 °C 30 in /  1015.8 hPa SW 5.8 mph /  9.3 km/h 5.8 mph /  9.3 km/h 48 % 0 in /  0.0 mm
15:19 81.5 °F /  27.5 °C 59.4 °F /  15.2 °C 30 in /  1015.8 hPa NNW 4.6 mph /  7.4 km/h 4.6 mph /  7.4 km/h 47 % 0 in /  0.0 mm
15:24 81 °F /  27.2 °C 59.4 °F /  15.2 °C 30 in /  1015.8 hPa SW 8.1 mph /  13.0 km/h 8.1 mph /  13.0 km/h 48 % 0 in /  0.0 mm
15:29 80.6 °F /  27.0 °C 59.2 °F /  15.1 °C 30 in /  1015.8 hPa SSW 2.3 mph /  3.7 km/h 2.3 mph /  3.7 km/h 48 % 0 in /  0.0 mm
15:34 80.4 °F /  26.9 °C 59.5 °F /  15.3 °C 30 in /  1015.8 hPa South 3.5 mph /  5.6 km/h 3.5 mph /  5.6 km/h 49 % 0 in /  0.0 mm
15:39 80.6 °F /  27.0 °C 59.2 °F /  15.1 °C 30 in /  1015.8 hPa WSW 2.9 mph /  4.7 km/h 2.9 mph /  4.7 km/h 48 % 0 in /  0.0 mm
15:44 81 °F /  27.2 °C 59.4 °F /  15.2 °C 30 in /  1015.8 hPa SSW 5.8 mph /  9.3 km/h 5.8 mph /  9.3 km/h 48 % 0 in /  0.0 mm
15:49 80.6 °F /  27.0 °C 59.2 °F /  15.1 °C 30 in /  1015.8 hPa SW 8.1 mph /  13.0 km/h 8.1 mph /  13.0 km/h 48 % 0 in /  0.0 mm
15:54 79.7 °F /  26.5 °C 58.8 °F /  14.9 °C 30 in /  1015.8 hPa WSW 3.8 mph /  6.1 km/h 3.8 mph /  6.1 km/h 49 % 0 in /  0.0 mm
15:59 80.1 °F /  26.7 °C 59.2 °F /  15.1 °C 30 in /  1015.8 hPa WSW 4.6 mph /  7.4 km/h 4.6 mph /  7.4 km/h 49 % 0 in /  0.0 mm
16:04 80.4 °F /  26.9 °C 60.1 °F /  15.6 °C 30 in /  1015.8 hPa West 9.2 mph /  14.8 km/h 9.2 mph /  14.8 km/h 50 % 0 in /  0.0 mm
16:09 79.7 °F /  26.5 °C 59.4 °F /  15.2 °C 30 in /  1015.8 hPa South 4.6 mph /  7.4 km/h 4.6 mph /  7.4 km/h 50 % 0 in /  0.0 mm
16:14 79.7 °F /  26.5 °C 59.4 °F /  15.2 °C 30 in /  1015.8 hPa WSW 5.8 mph /  9.3 km/h 5.8 mph /  9.3 km/h 50 % 0 in /  0.0 mm
16:19 78.4 °F /  25.8 °C 58.3 °F /  14.6 °C 30 in /  1015.8 hPa SE 5.8 mph /  9.3 km/h 5.9 mph /  9.5 km/h 50 % 0 in /  0.0 mm
16:24 78.8 °F /  26.0 °C 58.6 °F /  14.8 °C 30 in /  1015.8 hPa South 9.2 mph /  14.8 km/h 9.2 mph /  14.8 km/h 50 % 0 in /  0.0 mm
16:29 77.9 °F /  25.5 °C 58.3 °F /  14.6 °C 30 in /  1015.8 hPa SW 5.8 mph /  9.3 km/h 5.8 mph /  9.3 km/h 51 % 0 in /  0.0 mm
16:34 77.9 °F /  25.5 °C 58.3 °F /  14.6 °C 30 in /  1015.8 hPa SSW 5.8 mph /  9.3 km/h 5.8 mph /  9.3 km/h 51 % 0 in /  0.0 mm
16:39 79 °F /  26.1 °C 59.4 °F /  15.2 °C 30 in /  1015.8 hPa SW 4.6 mph /  7.4 km/h 4.6 mph /  7.4 km/h 51 % 0 in /  0.0 mm
16:44 79.2 °F /  26.2 °C 59.5 °F /  15.3 °C 30 in /  1015.8 hPa SSW 5.8 mph /  9.3 km/h 5.8 mph /  9.3 km/h 51 % 0 in /  0.0 mm
16:49 78.1 °F /  25.6 °C 58.5 °F /  14.7 °C 30 in /  1015.8 hPa SW 8.1 mph /  13.0 km/h 8.1 mph /  13.0 km/h 51 % 0 in /  0.0 mm
16:54 78.4 °F /  25.8 °C 58.8 °F /  14.9 °C 30 in /  1015.8 hPa West 4.6 mph /  7.4 km/h 4.6 mph /  7.4 km/h 51 % 0 in /  0.0 mm
16:59 79.2 °F /  26.2 °C 59.5 °F /  15.3 °C 30 in /  1015.8 hPa SSE 4.6 mph /  7.4 km/h 4.6 mph /  7.4 km/h 51 % 0 in /  0.0 mm
17:04 79.2 °F /  26.2 °C 59.5 °F /  15.3 °C 30 in /  1015.8 hPa South 4.7 mph /  7.6 km/h 4.7 mph /  7.6 km/h 51 % 0 in /  0.0 mm
17:09 78.8 °F /  26.0 °C 59.2 °F /  15.1 °C 30 in /  1015.8 hPa SSE 6.9 mph /  11.1 km/h 6.9 mph /  11.1 km/h 51 % 0 in /  0.0 mm
17:14 78.4 °F /  25.8 °C 58.8 °F /  14.9 °C 30 in /  1015.8 hPa SW 8.1 mph /  13.0 km/h 8.1 mph /  13.0 km/h 51 % 0 in /  0.0 mm
17:19 77.9 °F /  25.5 °C 58.8 °F /  14.9 °C 30 in /  1014.8 hPa SW 4.6 mph /  7.4 km/h 4.6 mph /  7.4 km/h 52 % 0 in /  0.0 mm
17:24 77.9 °F /  25.5 °C 58.8 °F /  14.9 °C 30 in /  1014.8 hPa South 9.2 mph /  14.8 km/h 9.2 mph /  14.8 km/h 52 % 0 in /  0.0 mm
17:29 77.7 °F /  25.4 °C 58.6 °F /  14.8 °C 30 in /  1014.8 hPa South 8.1 mph /  13.0 km/h 8.1 mph /  13.0 km/h 52 % 0 in /  0.0 mm
17:34 78.1 °F /  25.6 °C 59 °F /  15.0 °C 30 in /  1015.8 hPa SSW 6.9 mph /  11.1 km/h 6.9 mph /  11.1 km/h 52 % 0 in /  0.0 mm
17:39 77.9 °F /  25.5 °C 59.4 °F /  15.2 °C 30 in /  1015.8 hPa SSE 8.1 mph /  13.0 km/h 8.1 mph /  13.0 km/h 53 % 0 in /  0.0 mm
17:44 77.5 °F /  25.3 °C 59.2 °F /  15.1 °C 30 in /  1015.8 hPa WSW 6.9 mph /  11.1 km/h 6.9 mph /  11.1 km/h 53 % 0 in /  0.0 mm
17:49 77.4 °F /  25.2 °C 58.8 °F /  14.9 °C 30 in /  1015.8 hPa SSW 3.5 mph /  5.6 km/h 3.5 mph /  5.6 km/h 53 % 0 in /  0.0 mm
17:54 77 °F /  25.0 °C 58.6 °F /  14.8 °C 30 in /  1015.8 hPa SSW 3.5 mph /  5.6 km/h 3.5 mph /  5.6 km/h 53 % 0 in /  0.0 mm
17:59 76.8 °F /  24.9 °C 59.4 °F /  15.2 °C 30 in /  1015.8 hPa SSW 5.8 mph /  9.3 km/h 5.8 mph /  9.3 km/h 55 % 0 in /  0.0 mm
18:04 76.5 °F /  24.7 °C 59.2 °F /  15.1 °C 30 in /  1014.8 hPa SSW 6.9 mph /  11.1 km/h 6.9 mph /  11.1 km/h 55 % 0 in /  0.0 mm
18:09 75.9 °F /  24.4 °C 59.2 °F /  15.1 °C 30 in /  1014.8 hPa SSW 12.7 mph /  20.4 km/h 12.7 mph /  20.4 km/h 56 % 0 in /  0.0 mm
18:14 75.7 °F /  24.3 °C 58.8 °F /  14.9 °C 30 in /  1014.8 hPa SW 5.8 mph /  9.3 km/h 5.8 mph /  9.3 km/h 56 % 0 in /  0.0 mm
18:19 75.7 °F /  24.3 °C 59.4 °F /  15.2 °C 30 in /  1014.8 hPa SW 8.1 mph /  13.0 km/h 8.1 mph /  13.0 km/h 57 % 0 in /  0.0 mm
18:24 75.6 °F /  24.2 °C 59.4 °F /  15.2 °C 30 in /  1014.8 hPa SW 4.6 mph /  7.4 km/h 4.6 mph /  7.4 km/h 57 % 0 in /  0.0 mm
18:29 75.4 °F /  24.1 °C 59.2 °F /  15.1 °C 30 in /  1014.8 hPa SSE 9.2 mph /  14.8 km/h 9.2 mph /  14.8 km/h 57 % 0 in /  0.0 mm
18:34 75.6 °F /  24.2 °C 59.4 °F /  15.2 °C 30 in /  1015.8 hPa SW 5.8 mph /  9.3 km/h 5.8 mph /  9.3 km/h 57 % 0 in /  0.0 mm
18:39 75.4 °F /  24.1 °C 59.5 °F /  15.3 °C 30 in /  1015.8 hPa WNW 6 mph /  9.7 km/h 6 mph /  9.7 km/h 58 % 0 in /  0.0 mm
18:44 75.2 °F /  24.0 °C 59.4 °F /  15.2 °C 30 in /  1015.8 hPa SW 8.1 mph /  13.0 km/h 8.1 mph /  13.0 km/h 58 % 0 in /  0.0 mm
18:49 74.7 °F /  23.7 °C 59.9 °F /  15.5 °C 30 in /  1015.8 hPa WSW 8.5 mph /  13.7 km/h 8.5 mph /  13.7 km/h 60 % 0 in /  0.0 mm
18:54 74.3 °F /  23.5 °C 59.5 °F /  15.3 °C 30 in /  1015.8 hPa SW 5.8 mph /  9.3 km/h 5.8 mph /  9.3 km/h 60 % 0 in /  0.0 mm
18:59 73.9 °F /  23.3 °C 59.2 °F /  15.1 °C 30 in /  1015.8 hPa SSW 8.1 mph /  13.0 km/h 8.1 mph /  13.0 km/h 60 % 0 in /  0.0 mm
19:04 73.6 °F /  23.1 °C 59.4 °F /  15.2 °C 30 in /  1015.8 hPa SW 5.9 mph /  9.5 km/h 5.9 mph /  9.5 km/h 61 % 0 in /  0.0 mm
19:05 73.6 °F /  23.1 °C 59.4 °F /  15.2 °C 30 in /  1015.8 hPa SW 8.1 mph /  13.0 km/h 8.1 mph /  13.0 km/h 61 % 0 in /  0.0 mm
19:10 73.2 °F /  22.9 °C 59.4 °F /  15.2 °C 30 in /  1015.8 hPa South 5.8 mph /  9.3 km/h 5.8 mph /  9.3 km/h 62 % 0 in /  0.0 mm
19:15 72.9 °F /  22.7 °C 59.5 °F /  15.3 °C 30 in /  1015.8 hPa SW 5.8 mph /  9.3 km/h 5.8 mph /  9.3 km/h 63 % 0 in /  0.0 mm
19:20 72.5 °F /  22.5 °C 59.2 °F /  15.1 °C 30 in /  1015.8 hPa SSW 6.9 mph /  11.1 km/h 6.9 mph /  11.1 km/h 63 % 0 in /  0.0 mm
19:25 72.5 °F /  22.5 °C 59.5 °F /  15.3 °C 30 in /  1015.8 hPa SW 5.8 mph /  9.3 km/h 5.8 mph /  9.3 km/h 64 % 0 in /  0.0 mm
19:30 72.1 °F /  22.3 °C 59.4 °F /  15.2 °C 30 in /  1015.8 hPa SW 5.8 mph /  9.3 km/h 5.8 mph /  9.3 km/h 64 % 0 in /  0.0 mm
19:35 72 °F /  22.2 °C 59.5 °F /  15.3 °C 30 in /  1015.8 hPa SW 8.1 mph /  13.0 km/h 8.1 mph /  13.0 km/h 65 % 0 in /  0.0 mm
19:40 71.8 °F /  22.1 °C 59.4 °F /  15.2 °C 30 in /  1015.8 hPa SW 5.8 mph /  9.3 km/h 5.8 mph /  9.3 km/h 65 % 0 in /  0.0 mm
19:45 71.6 °F /  22.0 °C 59.2 °F /  15.1 °C 30 in /  1015.8 hPa South 8.1 mph /  13.0 km/h 8.1 mph /  13.0 km/h 65 % 0 in /  0.0 mm
19:50 71.4 °F /  21.9 °C 59.9 °F /  15.5 °C 30 in /  1015.8 hPa SSW 5.8 mph /  9.3 km/h 5.8 mph /  9.3 km/h 67 % 0 in /  0.0 mm
19:55 71.1 °F /  21.7 °C 60.1 °F /  15.6 °C 30 in /  1015.8 hPa SSE 8.1 mph /  13.0 km/h 8.1 mph /  13.0 km/h 68 % 0 in /  0.0 mm
20:00 70.9 °F /  21.6 °C 59.7 °F /  15.4 °C 30 in /  1015.8 hPa WSW 4.6 mph /  7.4 km/h 4.6 mph /  7.4 km/h 68 % 0 in /  0.0 mm
20:05 70.7 °F /  21.5 °C 60.1 °F /  15.6 °C 30 in /  1016.8 hPa SSW 6.9 mph /  11.1 km/h 6.9 mph /  11.1 km/h 69 % 0 in /  0.0 mm
20:10 70.5 °F /  21.4 °C 60.3 °F /  15.7 °C 30 in /  1016.8 hPa SSW 5.8 mph /  9.3 km/h 5.8 mph /  9.3 km/h 70 % 0 in /  0.0 mm
20:15 70.3 °F /  21.3 °C 60.1 °F /  15.6 °C 30 in /  1016.8 hPa WSW 6 mph /  9.7 km/h 6 mph /  9.7 km/h 70 % 0 in /  0.0 mm
20:20 70.2 °F /  21.2 °C 59.9 °F /  15.5 °C 30 in /  1016.8 hPa SW 5.8 mph /  9.3 km/h 5.8 mph /  9.3 km/h 70 % 0 in /  0.0 mm
20:25 70 °F /  21.1 °C 60.1 °F /  15.6 °C 30 in /  1016.8 hPa WSW 5.8 mph /  9.3 km/h 5.8 mph /  9.3 km/h 71 % 0 in /  0.0 mm
20:30 69.8 °F /  21.0 °C 60.1 °F /  15.6 °C 30 in /  1016.8 hPa SSW 5.6 mph /  9.0 km/h 5.6 mph /  9.0 km/h 71 % 0 in /  0.0 mm
20:35 69.6 °F /  20.9 °C 59.7 °F /  15.4 °C 30.1 in /  1017.8 hPa WSW 5.8 mph /  9.3 km/h 5.8 mph /  9.3 km/h 71 % 0 in /  0.0 mm
20:40 69.4 °F /  20.8 °C 60.1 °F /  15.6 °C 30.1 in /  1017.8 hPa West 6.9 mph /  11.1 km/h 6.9 mph /  11.1 km/h 72 % 0 in /  0.0 mm
20:45 69.4 °F /  20.8 °C 60.1 °F /  15.6 °C 30.1 in /  1017.8 hPa SW 5.8 mph /  9.3 km/h 5.8 mph /  9.3 km/h 72 % 0 in /  0.0 mm
20:50 69.3 °F /  20.7 °C 59.7 °F /  15.4 °C 30.1 in /  1017.8 hPa SSW 8.1 mph /  13.0 km/h 8.1 mph /  13.0 km/h 72 % 0 in /  0.0 mm
20:55 69.1 °F /  20.6 °C 60.1 °F /  15.6 °C 30.1 in /  1017.8 hPa WSW 4.6 mph /  7.4 km/h 4.6 mph /  7.4 km/h 73 % 0 in /  0.0 mm
21:00 68.9 °F /  20.5 °C 59.9 °F /  15.5 °C 30.1 in /  1017.8 hPa SW 3.5 mph /  5.6 km/h 3.5 mph /  5.6 km/h 73 % 0 in /  0.0 mm
21:05 68.7 °F /  20.4 °C 59.7 °F /  15.4 °C 30.1 in /  1017.8 hPa SW 5.8 mph /  9.3 km/h 5.8 mph /  9.3 km/h 73 % 0 in /  0.0 mm
21:10 68.7 °F /  20.4 °C 59.7 °F /  15.4 °C 30.1 in /  1017.8 hPa SW 6.9 mph /  11.1 km/h 6.9 mph /  11.1 km/h 73 % 0 in /  0.0 mm
21:15 68.5 °F /  20.3 °C 59.9 °F /  15.5 °C 30.1 in /  1017.8 hPa SW 5.8 mph /  9.3 km/h 5.8 mph /  9.3 km/h 74 % 0 in /  0.0 mm
21:20 68.5 °F /  20.3 °C 59.9 °F /  15.5 °C 30.1 in /  1017.8 hPa SW 3.5 mph /  5.6 km/h 3.5 mph /  5.6 km/h 74 % 0 in /  0.0 mm
21:25 68.4 °F /  20.2 °C 59.7 °F /  15.4 °C 30.1 in /  1017.8 hPa SW 3.8 mph /  6.1 km/h 3.8 mph /  6.1 km/h 74 % 0 in /  0.0 mm
21:30 68.4 °F /  20.2 °C 60.1 °F /  15.6 °C 30.1 in /  1017.8 hPa SW 5.8 mph /  9.3 km/h 5.8 mph /  9.3 km/h 75 % 0 in /  0.0 mm
21:35 68.2 °F /  20.1 °C 60.1 °F /  15.6 °C 30.1 in /  1017.8 hPa SW 4.6 mph /  7.4 km/h 4.6 mph /  7.4 km/h 75 % 0 in /  0.0 mm
21:40 68.2 °F /  20.1 °C 60.1 °F /  15.6 °C 30.1 in /  1017.8 hPa SW 3.5 mph /  5.6 km/h 3.5 mph /  5.6 km/h 75 % 0 in /  0.0 mm
21:45 68 °F /  20.0 °C 60.3 °F /  15.7 °C 30.1 in /  1017.8 hPa WSW 3.5 mph /  5.6 km/h 3.5 mph /  5.6 km/h 76 % 0 in /  0.0 mm
21:50 68 °F /  20.0 °C 60.3 °F /  15.7 °C 30.1 in /  1017.8 hPa SSW 3.5 mph /  5.6 km/h 3.5 mph /  5.6 km/h 76 % 0 in /  0.0 mm
21:55 67.8 °F /  19.9 °C 60.1 °F /  15.6 °C 30.1 in /  1017.8 hPa SW 2.9 mph /  4.7 km/h 2.9 mph /  4.7 km/h 76 % 0 in /  0.0 mm
22:00 67.8 °F /  19.9 °C 60.3 °F /  15.7 °C 30.1 in /  1017.8 hPa WSW 2.4 mph /  3.9 km/h 2.4 mph /  3.9 km/h 77 % 0 in /  0.0 mm
22:05 67.8 °F /  19.9 °C 60.3 °F /  15.7 °C 30.1 in /  1017.8 hPa SW 2.3 mph /  3.7 km/h 2.3 mph /  3.7 km/h 77 % 0 in /  0.0 mm
22:10 67.6 °F /  19.8 °C 60.3 °F /  15.7 °C 30.1 in /  1017.8 hPa SW 2.3 mph /  3.7 km/h 2.3 mph /  3.7 km/h 77 % 0 in /  0.0 mm
22:15 67.6 °F /  19.8 °C 60.3 °F /  15.7 °C 30.1 in /  1017.8 hPa West 2 mph /  3.2 km/h   77 % 0 in /  0.0 mm
22:20 67.6 °F /  19.8 °C 60.3 °F /  15.7 °C 30.1 in /  1017.8 hPa WSW 1.2 mph /  1.9 km/h 1.2 mph /  1.9 km/h 77 % 0 in /  0.0 mm
22:25 67.6 °F /  19.8 °C 60.3 °F /  15.7 °C 30.1 in /  1017.8 hPa WNW 2.3 mph /  3.7 km/h 2.3 mph /  3.7 km/h 77 % 0 in /  0.0 mm
22:30 67.6 °F /  19.8 °C 60.3 °F /  15.7 °C 30.1 in /  1017.8 hPa West 2.3 mph /  3.7 km/h 2.3 mph /  3.7 km/h 77 % 0 in /  0.0 mm
22:35 67.6 °F /  19.8 °C 60.3 °F /  15.7 °C 30.1 in /  1017.8 hPa West 1.2 mph /  1.9 km/h 1.2 mph /  1.9 km/h 77 % 0 in /  0.0 mm
22:40 67.6 °F /  19.8 °C 60.4 °F /  15.8 °C 30.1 in /  1017.8 hPa Calm     78 % 0 in /  0.0 mm
22:45 67.5 °F /  19.7 °C 60.4 °F /  15.8 °C 30.1 in /  1017.8 hPa WSW 1.2 mph /  1.9 km/h   78 % 0 in /  0.0 mm
22:50 67.3 °F /  19.6 °C 60.3 °F /  15.7 °C 30.1 in /  1018.8 hPa Calm     78 % 0 in /  0.0 mm
22:55 67.3 °F /  19.6 °C 60.3 °F /  15.7 °C 30.1 in /  1018.8 hPa Calm     78 % 0 in /  0.0 mm
23:00 67.3 °F /  19.6 °C 60.3 °F /  15.7 °C 30.1 in /  1018.8 hPa WSW 2.3 mph /  3.7 km/h 2.3 mph /  3.7 km/h 78 % 0 in /  0.0 mm
23:05 67.3 °F /  19.6 °C 60.3 °F /  15.7 °C 30.1 in /  1017.8 hPa WSW 1.2 mph /  1.9 km/h 1.2 mph /  1.9 km/h 78 % 0 in /  0.0 mm
23:10 67.1 °F /  19.5 °C 60.4 °F /  15.8 °C 30.1 in /  1017.8 hPa Calm     79 % 0 in /  0.0 mm
23:15 66.9 °F /  19.4 °C 60.3 °F /  15.7 °C 30.1 in /  1017.8 hPa Calm     79 % 0 in /  0.0 mm
23:20 66.7 °F /  19.3 °C 60.1 °F /  15.6 °C 30.1 in /  1018.8 hPa Calm     79 % 0 in /  0.0 mm
23:25 66.7 °F /  19.3 °C 60.1 °F /  15.6 °C 30.1 in /  1018.8 hPa Calm     79 % 0 in /  0.0 mm
23:30 66.6 °F /  19.2 °C 59.7 °F /  15.4 °C 30.1 in /  1018.8 hPa Calm     79 % 0 in /  0.0 mm
23:35 66.6 °F /  19.2 °C 59.7 °F /  15.4 °C 30.1 in /  1018.8 hPa Calm     79 % 0 in /  0.0 mm
23:40 66.6 °F /  19.2 °C 59.7 °F /  15.4 °C 30.1 in /  1018.8 hPa Calm     79 % 0 in /  0.0 mm
23:45 66.4 °F /  19.1 °C 60.1 °F /  15.6 °C 30.1 in /  1018.8 hPa Calm     80 % 0 in /  0.0 mm
23:50 66.4 °F /  19.1 °C 60.1 °F /  15.6 °C 30.1 in /  1018.8 hPa Calm     80 % 0 in /  0.0 mm
23:55 66.2 °F /  19.0 °C 60.3 °F /  15.7 °C 30.1 in /  1018.8 hPa Calm     81 % 0 in /  0.0 mm
Meteo Sesrovires
Elogis d' Weather Underground - 3.5 mb

Guio original per  Jim McMurry - jmcmurry@mwt.net Adaptat per a la plantilla per  Wim van der Kuil - Leuven-Template.eu

Trobareu la nostra informacio del temps tambe a:

Weather Underground

AWEKAS